Time;durP1;ratioP1;P1;durP2;ratioP2;P2;SDS_P1;SDS_P2;PMS_P1;PMS_P2;Temp;Humidity;BMP_temperature;BMP_pressure;BME280_temperature;BME280_humidity;BME280_pressure;Samples;Min_cycle;Max_cycle;Signal;HPM_P1;HPM_P2
2023/02/21 02:15:49;;;;;;;23.20;11.13;;;8.70;99.90;;;;;;5063840;28;20074;-87
2023/02/21 02:18:42;;;;;;;18.05;10.52;;;8.60;99.90;;;;;;5050776;28;20071;-89
2023/02/21 02:21:36;;;;;;;23.73;10.60;;;8.70;99.90;;;;;;5066350;28;20096;-86
2023/02/21 02:24:31;;;;;;;20.10;10.52;;;8.70;99.90;;;;;;5045539;28;20028;-86
2023/02/21 02:27:16;;;;;;;16.58;9.15;;;8.60;99.90;;;;;;5063124;28;20070;-89
2023/02/21 02:30:10;;;;;;;17.88;9.90;;;8.70;99.90;;;;;;5050473;28;20035;-87
2023/02/21 02:33:21;;;;;;;16.10;9.02;;;8.70;99.90;;;;;;5046563;28;20074;-88
2023/02/21 02:35:54;;;;;;;;;;;8.60;99.90;;;;;;5063862;28;20104;-86
2023/02/21 02:38:36;;;;;;;18.08;9.73;;;8.60;99.90;;;;;;5052620;28;19915;-87
2023/02/21 02:41:31;;;;;;;16.67;9.80;;;8.60;99.90;;;;;;5059189;28;20017;-87
2023/02/21 02:44:08;;;;;;;16.98;8.85;;;8.60;99.90;;;;;;5045191;28;20097;-88
2023/02/21 02:46:37;;;;;;;16.42;9.23;;;8.60;99.90;;;;;;5033425;28;20038;-87
2023/02/21 02:49:13;;;;;;;16.85;9.40;;;8.60;99.90;;;;;;5043427;28;20160;-86
2023/02/21 02:51:38;;;;;;;14.40;8.73;;;8.60;99.90;;;;;;5060270;28;20128;-88
2023/02/21 02:54:04;;;;;;;15.20;8.80;;;8.60;99.90;;;;;;5052319;28;20101;-88
2023/02/21 02:56:30;;;;;;;15.13;9.20;;;8.60;99.90;;;;;;5060952;28;20025;-88
2023/02/21 02:59:12;;;;;;;15.40;8.05;;;8.60;99.90;;;;;;5063306;28;20081;-86
2023/02/21 03:01:55;;;;;;;15.38;9.15;;;8.60;99.90;;;;;;5069047;28;20028;-88
2023/02/21 03:04:39;;;;;;;15.63;7.93;;;8.60;99.90;;;;;;5072044;28;20441;-86
2023/02/21 03:07:38;;;;;;;14.20;8.70;;;8.60;99.90;;;;;;5059807;28;20047;-88
2023/02/21 03:10:30;;;;;;;12.32;7.40;;;8.60;99.90;;;;;;5031752;28;20053;-87
2023/02/21 03:13:23;;;;;;;10.75;5.53;;;8.50;99.90;;;;;;5063008;28;20087;-87
2023/02/21 03:15:57;;;;;;;11.35;6.07;;;8.60;99.90;;;;;;5039889;28;20095;-87
2023/02/21 03:18:32;;;;;;;11.60;6.22;;;8.50;99.90;;;;;;5055853;28;20096;-88
2023/02/21 03:21:00;;;;;;;12.55;6.18;;;8.50;99.90;;;;;;5037969;28;20128;-86
2023/02/21 03:23:28;;;;;;;10.10;5.55;;;8.50;99.90;;;;;;5044487;28;20044;-88
2023/02/21 03:25:56;;;;;;;11.77;6.38;;;8.50;99.90;;;;;;5063958;28;20073;-85
2023/02/21 03:28:24;;;;;;;9.40;5.50;;;8.50;99.90;;;;;;5034927;28;20049;-88
2023/02/21 03:30:52;;;;;;;13.68;7.45;;;8.50;99.90;;;;;;5063816;28;20036;-89
2023/02/21 03:33:18;;;;;;;12.00;5.93;;;8.50;99.90;;;;;;5043988;28;20056;-86
2023/02/21 03:35:44;;;;;;;10.93;6.20;;;8.50;99.90;;;;;;5037129;28;20048;-88
2023/02/21 03:38:10;;;;;;;12.32;5.93;;;8.50;99.90;;;;;;5061764;28;20093;-87
2023/02/21 03:40:36;;;;;;;11.20;5.57;;;8.50;99.90;;;;;;5065917;28;20023;-86
2023/02/21 03:43:05;;;;;;;10.60;4.85;;;8.50;99.90;;;;;;5061543;28;20025;-86
2023/02/21 03:45:31;;;;;;;11.15;5.65;;;8.50;99.90;;;;;;5063150;28;20065;-88
2023/02/21 03:47:57;;;;;;;9.65;5.28;;;8.50;99.90;;;;;;5046262;28;20119;-88
2023/02/21 03:50:22;;;;;;;9.93;5.53;;;8.50;99.90;;;;;;5061453;28;20033;-86
2023/02/21 03:52:48;;;;;;;11.73;6.10;;;8.40;99.90;;;;;;5044255;28;20080;-88
2023/02/21 03:55:13;;;;;;;8.00;5.00;;;8.50;99.90;;;;;;5041151;28;20037;-87
2023/02/21 03:57:39;;;;;;;8.82;4.70;;;8.40;99.90;;;;;;5041072;28;20060;-85
2023/02/21 04:00:05;;;;;;;8.18;4.63;;;8.40;99.90;;;;;;5046487;28;20029;-86
2023/02/21 04:02:31;;;;;;;8.80;4.57;;;8.50;99.90;;;;;;5063837;28;20061;-86
2023/02/21 04:04:56;;;;;;;6.72;3.58;;;8.40;99.90;;;;;;5044854;28;20033;-87
2023/02/21 04:07:22;;;;;;;8.23;3.20;;;8.40;99.90;;;;;;5038036;28;20104;-86
2023/02/21 04:09:48;;;;;;;7.53;4.07;;;8.40;99.90;;;;;;5057029;28;20062;-87
2023/02/21 04:12:14;;;;;;;8.68;4.32;;;8.50;99.90;;;;;;5038847;28;20017;-88
2023/02/21 04:14:40;;;;;;;8.27;3.88;;;8.40;99.90;;;;;;5052533;28;20108;-87
2023/02/21 04:17:05;;;;;;;8.45;4.40;;;8.40;99.90;;;;;;5043840;28;20159;-86
2023/02/21 04:19:31;;;;;;;9.63;4.60;;;8.40;99.90;;;;;;5042823;28;20017;-86
2023/02/21 04:21:56;;;;;;;8.88;4.25;;;8.40;99.90;;;;;;5041946;28;20040;-88
2023/02/21 04:24:22;;;;;;;7.88;4.05;;;8.40;99.90;;;;;;5043727;28;20107;-88
2023/02/21 04:26:47;;;;;;;9.05;3.58;;;8.40;99.90;;;;;;5045193;28;20032;-87
2023/02/21 04:29:13;;;;;;;8.10;3.80;;;8.40;99.90;;;;;;5040994;28;20499;-87
2023/02/21 04:31:38;;;;;;;7.72;3.35;;;8.40;99.90;;;;;;5044423;28;20029;-87
2023/02/21 04:34:04;;;;;;;6.85;3.63;;;8.40;99.90;;;;;;5043020;28;20043;-86
2023/02/21 04:36:30;;;;;;;7.57;3.90;;;8.40;99.90;;;;;;5046399;28;20037;-88
2023/02/21 04:38:55;;;;;;;7.03;3.83;;;8.40;99.90;;;;;;5050952;28;20090;-86
2023/02/21 04:41:21;;;;;;;6.63;3.63;;;8.40;99.90;;;;;;5039851;28;20033;-89
2023/02/21 04:43:47;;;;;;;7.78;3.30;;;8.40;99.90;;;;;;5044770;28;20119;-86
2023/02/21 04:46:15;;;;;;;8.38;3.58;;;8.40;99.90;;;;;;5045829;28;20141;-88
2023/02/21 04:48:43;;;;;;;7.70;3.00;;;8.40;99.90;;;;;;5058939;28;20345;-86
2023/02/21 04:51:09;;;;;;;6.72;3.22;;;8.40;99.90;;;;;;5063653;28;20017;-85
2023/02/21 04:53:35;;;;;;;7.50;3.55;;;8.30;99.90;;;;;;5041114;28;20129;-89
2023/02/21 04:56:00;;;;;;;7.90;3.45;;;8.30;99.90;;;;;;5044575;28;20041;-89
2023/02/21 04:58:25;;;;;;;6.25;2.78;;;8.30;99.90;;;;;;5051907;28;20407;-87
2023/02/21 05:00:51;;;;;;;7.13;3.22;;;8.30;99.90;;;;;;5047359;28;20757;-87
2023/02/21 05:03:17;;;;;;;5.88;3.40;;;8.30;99.90;;;;;;5043781;28;20044;-88
2023/02/21 05:05:42;;;;;;;6.63;2.83;;;8.30;99.90;;;;;;5044851;28;20041;-87
2023/02/21 05:08:08;;;;;;;6.35;2.88;;;8.30;99.90;;;;;;5049692;28;20036;-88
2023/02/21 05:10:33;;;;;;;5.32;2.95;;;8.30;99.90;;;;;;5046244;28;20032;-89
2023/02/21 05:12:59;;;;;;;5.82;2.80;;;8.30;99.90;;;;;;5047457;28;20030;-85
2023/02/21 05:15:24;;;;;;;5.38;2.33;;;8.30;99.90;;;;;;5416226;22;20142;-86
2023/02/21 05:20:26;;;;;;;5.70;2.70;;;8.30;99.90;;;;;;5724530;22;20045;31
2023/02/21 05:25:27;;;;;;;6.90;2.65;;;8.30;99.90;;;;;;5143663;22;20103;-87
2023/02/21 05:30:27;;;;;;;5.70;2.90;;;8.30;99.90;;;;;;5008779;28;20058;-77
2023/02/21 05:32:53;;;;;;;5.00;2.45;;;8.30;99.90;;;;;;4992883;28;20030;-77
2023/02/21 05:35:18;;;;;;;5.43;2.13;;;8.30;99.90;;;;;;5031329;28;20044;-77
2023/02/21 05:37:44;;;;;;;4.40;2.40;;;8.30;99.90;;;;;;5016352;28;20060;-78
2023/02/21 05:40:11;;;;;;;5.30;2.70;;;8.30;99.90;;;;;;5002660;28;20084;-79
2023/02/21 05:42:37;;;;;;;4.28;2.05;;;8.20;99.90;;;;;;5019661;28;20025;-79
2023/02/21 05:45:05;;;;;;;6.50;2.50;;;8.20;99.90;;;;;;5015865;28;20041;-79
2023/02/21 05:47:33;;;;;;;5.53;2.55;;;8.20;99.90;;;;;;5014341;28;20474;-80
2023/02/21 05:49:58;;;;;;;4.80;2.17;;;8.20;99.90;;;;;;5013991;28;20129;-79
2023/02/21 05:52:24;;;;;;;6.80;1.70;;;8.20;99.90;;;;;;5023762;28;20498;-79
2023/02/21 05:54:49;;;;;;;5.10;1.80;;;8.20;99.90;;;;;;5025313;28;20029;-79
2023/02/21 05:57:15;;;;;;;4.88;2.20;;;8.20;99.90;;;;;;5010318;28;20064;-79
2023/02/21 05:59:40;;;;;;;5.07;2.20;;;8.20;99.90;;;;;;5010921;28;20044;-79
2023/02/21 06:02:06;;;;;;;6.55;2.70;;;8.20;99.90;;;;;;5009145;28;20025;-79
2023/02/21 06:04:31;;;;;;;4.38;2.03;;;8.20;99.90;;;;;;5010327;28;20042;-79
2023/02/21 06:06:57;;;;;;;4.93;2.22;;;8.20;99.90;;;;;;5015799;28;20042;-79
2023/02/21 06:09:22;;;;;;;3.47;1.83;;;8.20;99.90;;;;;;5012130;28;20042;-79
2023/02/21 06:11:48;;;;;;;4.65;2.17;;;8.10;99.90;;;;;;5003216;28;20034;-79
2023/02/21 06:14:16;;;;;;;5.05;2.10;;;8.20;99.90;;;;;;5011654;28;20034;-79
2023/02/21 06:16:42;;;;;;;3.65;1.85;;;8.20;99.90;;;;;;5019244;28;20038;-79
2023/02/21 06:19:08;;;;;;;3.67;1.85;;;8.20;99.90;;;;;;5014375;28;20045;-80
2023/02/21 06:21:34;;;;;;;5.97;1.98;;;8.20;99.90;;;;;;5009273;28;21457;-78
2023/02/21 06:24:01;;;;;;;3.78;1.75;;;8.20;99.90;;;;;;5002283;28;20038;-79
2023/02/21 06:26:27;;;;;;;5.63;2.00;;;8.20;99.90;;;;;;5007529;28;20028;-79
2023/02/21 06:28:53;;;;;;;5.07;2.15;;;8.20;99.90;;;;;;5022610;28;20649;-79
2023/02/21 06:31:19;;;;;;;2.92;1.63;;;8.20;99.90;;;;;;5028571;28;20030;-79
2023/02/21 06:33:46;;;;;;;2.60;1.63;;;8.20;99.90;;;;;;5033798;28;20545;-78
2023/02/21 06:36:21;;;;;;;6.32;1.70;;;8.20;99.90;;;;;;5026010;28;20069;-79
2023/02/21 06:38:51;;;;;;;4.50;1.80;;;8.20;99.90;;;;;;5028915;28;20029;-78
2023/02/21 06:41:19;;;;;;;4.57;2.00;;;8.10;99.90;;;;;;5019604;28;20048;-78
2023/02/21 06:43:44;;;;;;;5.45;1.83;;;8.10;99.90;;;;;;5023567;28;20162;-78
2023/02/21 06:46:15;;;;;;;4.53;2.08;;;8.10;99.90;;;;;;5026302;28;20368;-78
2023/02/21 06:48:41;;;;;;;5.57;2.30;;;8.10;99.90;;;;;;5030484;28;20057;-78
2023/02/21 06:51:10;;;;;;;3.95;1.67;;;8.10;99.90;;;;;;5029735;28;20115;-79
2023/02/21 06:53:39;;;;;;;5.40;2.10;;;8.10;99.90;;;;;;5010636;28;20065;-79
2023/02/21 06:56:05;;;;;;;4.43;2.22;;;8.10;99.90;;;;;;5032020;28;20038;-79
2023/02/21 06:58:30;;;;;;;7.88;2.35;;;8.10;99.90;;;;;;5037355;28;20075;-79
2023/02/21 07:00:56;;;;;;;3.70;1.88;;;8.10;99.90;;;;;;5044704;28;20040;-79
2023/02/21 07:03:21;;;;;;;4.22;2.00;;;8.10;99.90;;;;;;5044277;28;20037;-79
2023/02/21 07:05:47;;;;;;;5.65;2.08;;;8.10;99.90;;;;;;5044216;28;20040;-79
2023/02/21 07:08:12;;;;;;;3.83;1.90;;;8.10;99.90;;;;;;5010182;28;20026;-79
2023/02/21 07:10:38;;;;;;;2.17;1.30;;;8.10;99.90;;;;;;5028015;28;20032;-79
2023/02/21 07:13:03;;;;;;;3.78;1.60;;;8.10;99.90;;;;;;5025086;28;20029;-79
2023/02/21 07:15:29;;;;;;;2.92;1.30;;;8.10;99.90;;;;;;5029795;28;20038;-79
2023/02/21 07:17:54;;;;;;;3.15;1.30;;;8.10;99.90;;;;;;5023644;28;20034;-79
2023/02/21 07:20:20;;;;;;;3.22;1.45;;;8.10;99.90;;;;;;5020920;28;20033;-79
2023/02/21 07:22:45;;;;;;;2.38;1.25;;;8.10;99.90;;;;;;5030880;28;20440;-79
2023/02/21 07:25:20;;;;;;;3.50;1.50;;;8.10;99.90;;;;;;5031932;28;20104;-79
2023/02/21 07:27:47;;;;;;;2.60;1.20;;;8.10;99.90;;;;;;5005959;28;20369;-79
2023/02/21 07:30:13;;;;;;;5.32;1.40;;;8.10;99.90;;;;;;5031484;28;20081;-79
2023/02/21 07:32:38;;;;;;;3.13;1.52;;;8.10;99.90;;;;;;5023789;28;20131;-79
2023/02/21 07:35:04;;;;;;;2.42;1.30;;;8.10;99.90;;;;;;5029101;28;20373;-79
2023/02/21 07:37:30;;;;;;;2.75;1.48;;;8.10;99.90;;;;;;5019547;28;20041;-79
2023/02/21 07:39:55;;;;;;;4.03;1.30;;;8.10;99.90;;;;;;5027581;28;20064;-79
2023/02/21 07:42:21;;;;;;;2.30;1.23;;;8.10;99.90;;;;;;5020708;28;20441;-77
2023/02/21 07:44:46;;;;;;;2.58;1.60;;;8.10;99.90;;;;;;5022532;28;20033;-78
2023/02/21 07:47:12;;;;;;;2.47;1.23;;;8.10;99.90;;;;;;5034731;28;20393;-76
2023/02/21 07:49:38;;;;;;;2.05;1.25;;;8.10;99.90;;;;;;5031855;28;20477;-76
2023/02/21 07:52:04;;;;;;;2.83;1.35;;;8.10;99.90;;;;;;5033691;28;20458;-77
2023/02/21 07:54:30;;;;;;;2.47;1.30;;;8.10;99.90;;;;;;5029405;28;20030;-78
2023/02/21 07:56:55;;;;;;;3.35;1.40;;;8.10;99.90;;;;;;5030610;28;20041;-79
2023/02/21 07:59:21;;;;;;;3.50;1.20;;;8.20;99.90;;;;;;5027277;28;20091;-78
2023/02/21 08:01:46;;;;;;;2.92;1.45;;;8.20;99.90;;;;;;5029881;28;20043;-79
2023/02/21 08:04:12;;;;;;;4.13;1.60;;;8.20;99.90;;;;;;5025984;28;20105;-79
2023/02/21 08:06:37;;;;;;;2.67;1.40;;;8.20;99.90;;;;;;5010547;28;20490;-79
2023/02/21 08:09:03;;;;;;;4.03;1.63;;;8.20;99.90;;;;;;5031486;28;20064;-79
2023/02/21 08:11:29;;;;;;;6.82;1.63;;;8.10;99.90;;;;;;5028765;28;20043;-78
2023/02/21 08:13:54;;;;;;;2.90;1.48;;;8.20;99.90;;;;;;5022974;28;20028;-78
2023/02/21 08:16:20;;;;;;;4.40;2.40;;;8.20;99.90;;;;;;5040868;28;20069;-79
2023/02/21 08:18:52;;;;;;;2.90;1.60;;;8.20;99.90;;;;;;5030001;28;20034;-79
2023/02/21 08:21:17;;;;;;;4.55;1.90;;;8.20;99.90;;;;;;5028466;28;20466;-79
2023/02/21 08:23:43;;;;;;;3.22;1.75;;;8.20;99.90;;;;;;5038147;28;20033;-79
2023/02/21 08:26:08;;;;;;;4.55;2.00;;;8.20;99.90;;;;;;5037292;28;20037;-79
2023/02/21 08:28:36;;;;;;;3.13;1.52;;;8.20;99.90;;;;;;5035495;28;20060;-78
2023/02/21 08:31:01;;;;;;;4.43;1.50;;;8.30;99.90;;;;;;5029583;28;20405;-79
2023/02/21 08:33:27;;;;;;;5.95;1.73;;;8.30;99.90;;;;;;5048354;28;20067;-80
2023/02/21 08:35:53;;;;;;;3.50;1.77;;;8.30;99.90;;;;;;5043213;28;20037;-79
2023/02/21 08:38:19;;;;;;;3.70;1.88;;;8.30;99.90;;;;;;5028428;28;20455;-79
2023/02/21 08:40:44;;;;;;;3.08;1.65;;;8.30;99.90;;;;;;5027772;28;20029;-77
2023/02/21 08:43:10;;;;;;;4.20;1.95;;;8.40;99.90;;;;;;5048085;28;20021;-78
2023/02/21 08:45:36;;;;;;;4.22;2.05;;;8.50;99.90;;;;;;5039551;28;20144;-77
2023/02/21 08:48:02;;;;;;;3.45;1.90;;;8.50;99.90;;;;;;5049351;28;20045;-78
2023/02/21 08:50:28;;;;;;;4.80;1.77;;;8.50;99.90;;;;;;5044295;28;20049;-77
2023/02/21 08:52:54;;;;;;;3.80;1.73;;;8.60;99.90;;;;;;5041983;28;20044;-77
2023/02/21 08:55:20;;;;;;;3.47;1.80;;;8.60;99.90;;;;;;5035557;28;20041;-78
2023/02/21 08:57:52;;;;;;;2.80;1.50;;;8.60;99.90;;;;;;5034870;28;20040;-78
2023/02/21 09:00:22;;;;;;;3.47;1.70;;;8.60;99.90;;;;;;5033407;28;20044;-78
2023/02/21 09:02:51;;;;;;;4.07;1.70;;;8.50;99.90;;;;;;5024192;28;20168;-79
2023/02/21 09:05:19;;;;;;;4.90;1.95;;;8.50;99.90;;;;;;5031675;28;20051;-78
2023/02/21 09:07:48;;;;;;;3.10;1.83;;;8.50;99.90;;;;;;5029923;28;20037;-78
2023/02/21 09:10:14;;;;;;;3.88;1.80;;;8.50;99.90;;;;;;5035696;28;20064;-79
2023/02/21 09:12:39;;;;;;;2.47;1.70;;;8.50;99.90;;;;;;5032062;28;20766;-76
2023/02/21 09:15:05;;;;;;;3.92;1.88;;;8.50;99.90;;;;;;5031072;28;20087;-76
2023/02/21 09:17:34;;;;;;;2.10;1.50;;;8.60;99.90;;;;;;5035437;28;20049;-76
2023/02/21 09:20:03;;;;;;;3.55;2.03;;;8.60;99.90;;;;;;5041865;28;20025;-77
2023/02/21 09:22:30;;;;;;;5.97;2.05;;;8.60;99.90;;;;;;5030908;28;20061;-77
2023/02/21 09:24:56;;;;;;;3.38;1.58;;;8.60;99.90;;;;;;5040736;28;20029;-77
2023/02/21 09:27:35;;;;;;;3.00;1.88;;;8.60;99.90;;;;;;5027350;28;20053;-77
2023/02/21 09:30:05;;;;;;;3.95;1.63;;;8.60;99.90;;;;;;5022574;28;20045;-76
2023/02/21 09:32:30;;;;;;;3.22;1.88;;;8.60;99.90;;;;;;5018247;28;20038;-76
2023/02/21 09:34:56;;;;;;;5.75;2.10;;;8.60;99.90;;;;;;5036470;28;20100;-76
2023/02/21 09:37:21;;;;;;;3.47;1.85;;;8.60;99.90;;;;;;5024949;28;20076;-76
2023/02/21 09:39:47;;;;;;;4.90;1.63;;;8.60;99.90;;;;;;5033396;28;20116;-76
2023/02/21 09:42:17;;;;;;;3.30;1.83;;;8.60;99.90;;;;;;5036068;28;20033;-76
2023/02/21 09:44:44;;;;;;;3.17;1.60;;;8.50;99.90;;;;;;5040981;28;20037;-76
2023/02/21 09:47:16;;;;;;;4.22;1.92;;;8.60;99.90;;;;;;5033132;28;20032;-76
2023/02/21 09:49:44;;;;;;;3.08;1.63;;;8.60;99.90;;;;;;5038338;28;20033;-76
2023/02/21 09:52:21;;;;;;;3.85;2.25;;;8.70;99.90;;;;;;5035480;28;20458;-75
2023/02/21 09:54:54;;;;;;;3.88;2.10;;;8.70;99.90;;;;;;5031407;28;21639;-75
2023/02/21 09:57:20;;;;;;;4.43;2.13;;;8.70;99.90;;;;;;5014218;28;20119;-75
2023/02/21 09:59:47;;;;;;;4.07;2.28;;;8.70;99.90;;;;;;5034845;28;20411;-75
2023/02/21 10:02:48;;;;;;;4.45;2.00;;;8.70;99.90;;;;;;5033881;28;20061;-76
2023/02/21 10:05:17;;;;;;;4.15;1.80;;;8.70;99.90;;;;;;5013950;28;20041;-75
2023/02/21 10:07:55;;;;;;;3.80;2.20;;;8.80;99.90;;;;;;5034467;28;20492;-76
2023/02/21 10:10:43;;;;;;;4.43;1.75;;;8.80;99.90;;;;;;5025768;28;20026;-76
2023/02/21 10:13:22;;;;;;;4.65;2.00;;;8.90;99.90;;;;;;5031284;28;20025;-76
2023/02/21 10:15:59;;;;;;;4.28;2.13;;;8.90;99.90;;;;;;5039536;28;20087;-76
2023/02/21 10:18:39;;;;;;;4.22;1.95;;;9.00;99.90;;;;;;5045307;28;20535;-76
2023/02/21 10:21:16;;;;;;;3.22;1.50;;;8.90;99.90;;;;;;5035184;28;20021;-76
2023/02/21 10:23:46;;;;;;;2.60;1.52;;;8.90;99.90;;;;;;5035426;28;20049;-76
2023/02/21 10:26:17;;;;;;;3.22;1.67;;;8.90;99.90;;;;;;5042166;28;20030;-76
2023/02/21 10:28:43;;;;;;;3.58;1.75;;;8.90;99.90;;;;;;5039660;28;20148;-76
2023/02/21 10:31:20;;;;;;;3.00;1.85;;;9.00;99.90;;;;;;5039365;28;20525;-76
2023/02/21 10:33:46;;;;;;;4.57;1.50;;;9.00;99.90;;;;;;5049707;28;20091;-76
2023/02/21 10:36:18;;;;;;;2.53;1.88;;;9.00;99.90;;;;;;5036200;28;20030;-76
2023/02/21 10:38:55;;;;;;;2.65;1.50;;;9.10;99.90;;;;;;5027754;28;20033;-76
2023/02/21 10:41:22;;;;;;;2.50;1.50;;;9.10;99.90;;;;;;5043481;28;20033;-75
2023/02/21 10:43:52;;;;;;;4.80;1.80;;;9.10;99.90;;;;;;5033546;28;20037;-76
2023/02/21 10:46:33;;;;;;;2.55;1.63;;;9.00;99.90;;;;;;5033722;28;20021;-76
2023/02/21 10:49:38;;;;;;;2.42;1.60;;;9.10;99.90;;;;;;5032426;28;20105;-76
2023/02/21 10:52:12;;;;;;;3.88;1.95;;;9.10;99.90;;;;;;5028092;28;20077;-76
2023/02/21 10:54:39;;;;;;;4.30;1.60;;;9.10;99.90;;;;;;5045058;28;20044;-76
2023/02/21 10:57:08;;;;;;;3.33;1.75;;;9.00;99.90;;;;;;5013367;28;20025;-76
2023/02/21 10:59:40;;;;;;;3.03;1.85;;;9.00;99.90;;;;;;5041955;28;20064;-76
2023/02/21 11:02:31;;;;;;;3.65;1.83;;;9.10;99.90;;;;;;5036234;28;20473;-76
2023/02/21 11:05:12;;;;;;;4.45;2.05;;;9.00;99.90;;;;;;5040363;28;20039;-76
2023/02/21 11:07:37;;;;;;;4.80;2.10;;;9.10;99.90;;;;;;5038279;28;20048;-76
2023/02/21 11:10:25;;;;;;;4.07;2.50;;;9.00;99.90;;;;;;5031956;28;20044;-76
2023/02/21 11:13:15;;;;;;;4.97;2.17;;;9.00;99.90;;;;;;5031325;28;20044;-76
2023/02/21 11:15:41;;;;;;;7.85;2.63;;;9.10;99.90;;;;;;5035038;28;20025;-76
2023/02/21 11:18:17;;;;;;;6.18;2.60;;;9.10;99.90;;;;;;5031658;28;20032;-76
2023/02/21 11:20:43;;;;;;;5.82;3.05;;;9.00;99.90;;;;;;5032322;28;20025;-76
2023/02/21 11:23:25;;;;;;;5.35;3.03;;;9.00;99.90;;;;;;5034984;28;20036;-76
2023/02/21 11:26:13;;;;;;;7.88;3.90;;;9.10;99.90;;;;;;5032790;28;20061;-76
2023/02/21 11:28:45;;;;;;;5.93;3.38;;;9.10;99.90;;;;;;5032439;28;20057;-76
2023/02/21 11:31:29;;;;;;;7.47;3.20;;;9.00;99.90;;;;;;5051151;28;20104;-76
2023/02/21 11:34:01;;;;;;;6.90;3.67;;;9.00;99.90;;;;;;5037732;28;20072;-76
2023/02/21 11:36:31;;;;;;;7.03;3.85;;;9.00;99.90;;;;;;5031180;28;20025;-76
2023/02/21 11:39:19;;;;;;;8.13;3.75;;;9.00;99.90;;;;;;5035970;28;20045;-76
2023/02/21 11:41:47;;;;;;;6.80;3.83;;;9.10;99.90;;;;;;5029739;28;20051;-76
2023/02/21 11:44:24;;;;;;;7.25;4.07;;;9.10;99.90;;;;;;5032390;28;20108;-76
2023/02/21 11:46:56;;;;;;;8.98;4.35;;;9.10;99.90;;;;;;5029908;28;20041;-76
2023/02/21 11:49:46;;;;;;;9.57;3.90;;;9.10;99.90;;;;;;5050716;28;20037;-76
2023/02/21 11:52:17;;;;;;;7.90;3.80;;;9.10;99.90;;;;;;5039027;28;20037;-76
2023/02/21 11:54:42;;;;;;;7.97;4.00;;;9.10;99.90;;;;;;5033709;28;20091;-76
2023/02/21 11:57:32;;;;;;;7.72;3.95;;;9.10;99.90;;;;;;5030870;28;20466;-76
2023/02/21 12:00:13;;;;;;;9.88;3.90;;;9.00;99.90;;;;;;5033837;28;20029;-76
2023/02/21 12:03:16;;;;;;;7.20;3.63;;;9.10;99.90;;;;;;5047834;28;20116;-76
2023/02/21 12:06:07;;;;;;;8.13;3.85;;;9.10;99.90;;;;;;5038579;28;20156;-76
2023/02/21 12:08:42;;;;;;;7.18;3.35;;;9.10;99.90;;;;;;5027286;28;20058;-76
2023/02/21 12:11:22;;;;;;;9.45;4.03;;;9.20;99.90;;;;;;5034679;28;20033;-76
2023/02/21 12:14:26;;;;;;;6.53;3.43;;;9.20;99.90;;;;;;5037792;28;20035;-76
2023/02/21 12:17:12;;;;;;;7.30;3.25;;;9.20;99.90;;;;;;5031344;28;20288;-76
2023/02/21 12:20:05;;;;;;;7.72;3.17;;;9.20;99.90;;;;;;5039886;28;20514;-76
2023/02/21 12:23:06;;;;;;;6.43;3.17;;;9.10;99.90;;;;;;5041439;28;20037;-76
2023/02/21 12:25:58;;;;;;;9.07;3.27;;;9.20;99.90;;;;;;5010744;28;20120;-76
2023/02/21 12:28:44;;;;;;;7.40;2.95;;;9.30;99.90;;;;;;5019341;28;20122;-76
2023/02/21 12:31:28;;;;;;;6.35;3.47;;;9.20;99.90;;;;;;5036079;28;20028;-76
2023/02/21 12:34:03;;;;;;;7.75;3.15;;;9.30;99.90;;;;;;5035445;28;20104;-76
2023/02/21 12:36:44;;;;;;;10.07;3.92;;;9.30;99.90;;;;;;5030854;28;20056;-76
2023/02/21 12:39:32;;;;;;;6.07;3.27;;;9.30;99.90;;;;;;5037114;28;20034;-76
2023/02/21 12:42:32;;;;;;;7.43;3.30;;;9.40;99.90;;;;;;5024179;28;20565;-76
2023/02/21 12:45:24;;;;;;;6.00;3.45;;;9.30;99.90;;;;;;5029643;28;20037;-76
2023/02/21 12:47:53;;;;;;;7.22;4.03;;;9.40;99.90;;;;;;5028086;28;20458;-76
2023/02/21 12:50:23;;;;;;;9.00;4.05;;;9.40;99.80;;;;;;5034108;28;20033;-76
2023/02/21 12:53:16;;;;;;;10.25;4.25;;;9.40;99.70;;;;;;5029471;28;20471;-76
2023/02/21 12:55:46;;;;;;;9.63;3.90;;;9.50;99.70;;;;;;5021189;28;20041;-76
2023/02/21 12:58:29;;;;;;;9.47;4.80;;;9.50;99.60;;;;;;5028307;28;20486;-76
2023/02/21 13:01:00;;;;;;;14.73;5.07;;;9.50;99.80;;;;;;5050352;28;20103;-76
2023/02/21 13:03:50;;;;;;;;;;;9.50;99.80;;;;;;5032945;28;20053;-74
2023/02/21 13:06:25;;;;;;;12.93;4.63;;;9.50;99.70;;;;;;5036880;28;19909;-75
2023/02/21 13:09:05;;;;;;;10.10;5.20;;;9.50;99.70;;;;;;5032614;28;20038;-75
2023/02/21 13:11:38;;;;;;;10.27;4.63;;;9.60;99.70;;;;;;5025748;28;20092;-75
2023/02/21 13:14:11;;;;;;;10.48;4.78;;;9.60;99.60;;;;;;5029814;28;20350;-74
2023/02/21 13:16:37;;;;;;;12.68;4.88;;;9.60;99.70;;;;;;5030369;28;20033;-74
2023/02/21 13:19:09;;;;;;;12.98;4.60;;;9.50;99.50;;;;;;5033060;28;20033;-74
2023/02/21 13:21:44;;;;;;;12.55;4.38;;;9.50;99.30;;;;;;5029312;28;20229;-75
2023/02/21 13:24:40;;;;;;;11.52;4.78;;;9.50;99.00;;;;;;5028479;28;20026;-75
2023/02/21 13:27:27;;;;;;;12.43;5.15;;;9.50;98.90;;;;;;5042662;28;20541;-75
2023/02/21 13:30:02;;;;;;;16.13;5.18;;;9.40;98.90;;;;;;5030170;28;20045;-73
2023/02/21 13:32:35;;;;;;;11.52;4.68;;;9.40;99.00;;;;;;5030798;28;20154;-76
2023/02/21 13:35:06;;;;;;;18.75;5.22;;;9.40;99.00;;;;;;5007416;28;20391;-72
2023/02/21 13:37:34;;;;;;;10.20;4.65;;;9.30;99.10;;;;;;5036754;28;20030;-73
2023/02/21 13:40:06;;;;;;;14.10;4.95;;;9.30;99.20;;;;;;5031563;28;20029;-74
2023/02/21 13:42:35;;;;;;;12.50;5.30;;;9.20;99.30;;;;;;5025674;28;20056;-75
2023/02/21 13:45:22;;;;;;;12.18;5.32;;;9.20;99.50;;;;;;5027541;28;20537;-75
2023/02/21 13:47:59;;;;;;;11.65;5.80;;;9.20;99.70;;;;;;5036799;28;20520;-75
2023/02/21 13:50:36;;;;;;;13.15;5.97;;;9.20;99.80;;;;;;5035025;28;20583;-75
2023/02/21 13:53:07;;;;;;;11.23;6.32;;;9.20;99.90;;;;;;5036460;28;20465;-75
2023/02/21 13:55:37;;;;;;;15.93;6.53;;;9.20;99.90;;;;;;5045122;28;20037;-76
2023/02/21 13:58:04;;;;;;;16.13;6.60;;;9.30;99.90;;;;;;5029842;28;20033;-75
2023/02/21 14:00:29;;;;;;;14.90;7.63;;;9.30;99.90;;;;;;5042902;28;20036;-75
2023/02/21 14:02:55;;;;;;;15.77;7.60;;;9.30;99.90;;;;;;5046500;28;20029;-75
2023/02/21 14:05:22;;;;;;;16.75;7.38;;;9.30;99.90;;;;;;5034638;28;20037;-75
2023/02/21 14:07:55;;;;;;;16.70;8.68;;;9.20;99.90;;;;;;5037075;28;20095;-75
2023/02/21 14:10:37;;;;;;;19.60;7.80;;;9.30;99.90;;;;;;5035476;28;20025;-75
2023/02/21 14:13:07;;;;;;;17.08;8.32;;;9.30;99.90;;;;;;5046213;28;20021;-75
2023/02/21 14:15:45;;;;;;;21.80;8.23;;;9.30;99.90;;;;;;5036533;28;20076;-75
2023/02/21 14:18:48;;;;;;;15.77;7.45;;;9.50;99.90;;;;;;5040668;28;20065;-76
2023/02/21 14:21:36;;;;;;;16.38;8.25;;;9.70;99.90;;;;;;5038623;28;20094;-76
2023/02/21 14:24:21;;;;;;;19.48;8.20;;;9.80;99.90;;;;;;5034236;28;20049;-75
2023/02/21 14:27:04;;;;;;;19.73;7.45;;;9.70;99.40;;;;;;5029575;28;20036;-75
2023/02/21 14:30:05;;;;;;;18.52;7.93;;;9.70;99.30;;;;;;5035432;28;20056;-76
2023/02/21 14:32:48;;;;;;;14.68;7.10;;;9.90;99.40;;;;;;5038425;28;20025;-76
2023/02/21 14:35:58;;;;;;;15.85;6.90;;;9.70;99.10;;;;;;5041228;28;20030;-75
2023/02/21 14:38:28;;;;;;;17.92;6.40;;;9.60;99.10;;;;;;5027425;28;20049;-75
2023/02/21 14:41:38;;;;;;;13.18;6.57;;;9.50;99.00;;;;;;5029698;28;20071;-75
2023/02/21 14:44:53;;;;;;;17.50;6.20;;;9.50;99.10;;;;;;5032998;28;20100;-75
2023/02/21 14:47:55;;;;;;;14.07;6.88;;;9.40;99.20;;;;;;4958220;28;20052;-75
2023/02/21 14:50:49;;;;;;;17.35;7.93;;;9.40;99.30;;;;;;5022847;28;20561;-75
2023/02/21 14:53:39;;;;;;;14.07;7.22;;;9.40;99.20;;;;;;5039797;28;20496;-75
2023/02/21 14:56:35;;;;;;;15.23;7.07;;;9.40;99.20;;;;;;5042458;28;20030;-76
2023/02/21 14:59:36;;;;;;;16.58;5.95;;;9.40;99.20;;;;;;5025505;28;21016;-75
2023/02/21 15:02:22;;;;;;;18.70;5.95;;;9.40;99.10;;;;;;5039174;28;20049;-76
2023/02/21 15:05:02;;;;;;;12.35;6.72;;;9.30;98.80;;;;;;5032456;28;20037;-75
2023/02/21 15:07:52;;;;;;;14.10;6.25;;;9.30;98.80;;;;;;5031145;28;20041;-75
2023/02/21 15:10:18;;;;;;;15.23;8.33;;;9.40;98.70;;;;;;5035706;28;20033;-75
2023/02/21 15:12:47;;;;;;;13.85;8.20;;;9.40;98.80;;;;;;5045355;28;20083;-75
2023/02/21 15:15:37;;;;;;;13.32;7.70;;;9.30;98.90;;;;;;5025043;28;20082;-75
2023/02/21 15:18:24;;;;;;;18.73;7.43;;;9.30;98.80;;;;;;5044602;28;20040;-75
2023/02/21 15:21:06;;;;;;;14.10;7.00;;;9.30;98.80;;;;;;5036804;28;20087;-75
2023/02/21 15:23:33;;;;;;;18.77;6.85;;;9.30;98.80;;;;;;5040913;28;20379;-75
2023/02/21 15:26:13;;;;;;;17.15;7.95;;;9.30;98.90;;;;;;5037988;28;20032;-75
2023/02/21 15:28:39;;;;;;;17.63;9.07;;;9.30;99.00;;;;;;5043715;28;20045;-75
2023/02/21 15:31:09;;;;;;;18.92;8.40;;;9.30;99.10;;;;;;5041020;28;20498;-75
2023/02/21 15:33:40;;;;;;;20.52;9.23;;;9.30;99.10;;;;;;5036601;28;20112;-75
2023/02/21 15:36:26;;;;;;;16.85;9.63;;;9.30;99.20;;;;;;5031979;28;20034;-75
2023/02/21 15:39:07;;;;;;;23.38;10.43;;;9.30;99.30;;;;;;5035839;28;20025;-75
2023/02/21 15:41:33;;;;;;;;;;;9.20;99.30;;;;;;5035882;28;20127;-75
2023/02/21 15:44:30;;;;;;;20.35;11.02;;;9.20;99.40;;;;;;5031432;28;20012;-75
2023/02/21 15:47:06;;;;;;;24.58;10.68;;;9.10;99.60;;;;;;5033669;28;20087;-74
2023/02/21 15:49:39;;;;;;;24.70;11.85;;;9.10;99.70;;;;;;5023860;28;20033;-75